createdAt,value
2019-03-21T00:00:52.953Z,74.10
2019-03-21T00:03:23.567Z,74.30
2019-03-21T00:05:57.692Z,74.50
2019-03-21T00:08:29.972Z,74.40
2019-03-21T00:11:46.094Z,73.70
2019-03-21T00:14:37.614Z,73.20
2019-03-21T00:17:07.880Z,73.20
2019-03-21T00:19:40.231Z,73.80
2019-03-21T00:22:16.068Z,73.90
2019-03-21T00:24:46.908Z,74.40
2019-03-21T00:27:20.889Z,74.30
2019-03-21T00:29:53.611Z,74.00
2019-03-21T00:32:25.339Z,74.60
2019-03-21T00:34:57.181Z,75.20
2019-03-21T00:37:27.928Z,74.60
2019-03-21T00:39:58.647Z,74.00
2019-03-21T00:42:30.933Z,73.70
2019-03-21T00:45:07.670Z,73.40
2019-03-21T00:47:41.437Z,73.50
2019-03-21T00:50:16.659Z,73.40
2019-03-21T00:52:48.405Z,73.90
2019-03-21T00:55:20.714Z,74.30
2019-03-21T00:57:52.559Z,74.50
2019-03-21T01:00:29.305Z,75.90
2019-03-21T01:03:00.246Z,74.90
2019-03-21T01:05:38.160Z,75.20
2019-03-21T01:08:03.953Z,75.10
2019-03-21T01:10:35.773Z,75.50
2019-03-21T01:13:06.410Z,74.90
2019-03-21T01:15:38.769Z,75.20
2019-03-21T01:18:09.428Z,75.60
2019-03-21T01:20:40.101Z,75.10
2019-03-21T01:23:10.741Z,74.40
2019-03-21T01:25:48.086Z,73.80
2019-03-21T01:28:21.470Z,74.40
2019-03-21T01:30:52.111Z,74.90
2019-03-21T01:33:23.880Z,75.20
2019-03-21T01:35:54.452Z,74.50
2019-03-21T01:38:25.115Z,74.50
2019-03-21T01:40:57.373Z,73.90
2019-03-21T01:43:28.014Z,74.00
2019-03-21T01:46:00.658Z,74.00
2019-03-21T01:48:34.410Z,73.70
2019-03-21T01:51:05.090Z,73.80
2019-03-21T01:53:37.260Z,74.30
2019-03-21T01:56:08.908Z,74.60
2019-03-21T01:58:40.674Z,74.40
2019-03-21T02:01:12.943Z,74.40
2019-03-21T02:03:43.707Z,74.70
2019-03-21T02:06:14.286Z,74.80
2019-03-21T02:08:50.698Z,74.30
2019-03-21T02:11:22.503Z,74.20
2019-03-21T02:13:59.894Z,74.60
2019-03-21T02:16:31.867Z,74.50
2019-03-21T02:19:02.452Z,74.70
2019-03-21T02:21:34.294Z,74.70
2019-03-21T02:24:07.618Z,75.50
2019-03-21T02:26:39.242Z,75.50
2019-03-21T02:29:12.367Z,76.40
2019-03-21T02:31:43.500Z,76.50
2019-03-21T02:34:15.301Z,76.10
2019-03-21T02:36:47.751Z,74.90
2019-03-21T02:39:18.458Z,75.40
2019-03-21T02:41:53.315Z,75.80
2019-03-21T02:44:27.654Z,75.70
2019-03-21T02:46:58.740Z,74.90
2019-03-21T02:49:29.499Z,74.90
2019-03-21T02:52:02.229Z,74.40
2019-03-21T02:54:37.367Z,74.40
2019-03-21T02:57:10.473Z,74.40
2019-03-21T02:59:44.086Z,73.70
2019-03-21T03:02:17.142Z,74.10
2019-03-21T03:04:51.416Z,74.50
2019-03-21T03:07:24.992Z,74.60
2019-03-21T03:09:57.444Z,74.90
2019-03-21T03:12:28.192Z,75.30
2019-03-21T03:15:00.035Z,74.80
2019-03-21T03:17:30.667Z,74.10
2019-03-21T03:20:03.127Z,74.10
2019-03-21T03:22:35.580Z,74.70
2019-03-21T03:25:11.378Z,74.50
2019-03-21T03:27:43.412Z,75.00
2019-03-21T03:30:24.073Z,74.60
2019-03-21T03:32:56.026Z,74.20
2019-03-21T03:35:26.660Z,73.90
2019-03-21T03:37:57.299Z,74.00
2019-03-21T03:40:31.515Z,74.40
2019-03-21T03:43:02.164Z,74.40
2019-03-21T03:45:37.885Z,74.60
2019-03-21T03:48:08.351Z,74.40
2019-03-21T03:50:38.995Z,73.90
2019-03-21T03:53:11.272Z,74.60
2019-03-21T03:55:41.926Z,74.70
2019-03-21T03:58:15.270Z,74.50
2019-03-21T04:00:48.432Z,74.60
2019-03-21T04:03:22.865Z,75.00
2019-03-21T04:05:54.615Z,75.00
2019-03-21T04:08:28.422Z,74.60
2019-03-21T04:10:59.187Z,74.70
2019-03-21T04:13:31.857Z,75.40
2019-03-21T04:16:06.844Z,75.10
2019-03-21T04:18:37.601Z,75.40
2019-03-21T04:21:14.049Z,75.10
2019-03-21T04:23:46.019Z,74.70
2019-03-21T04:26:23.455Z,74.10
2019-03-21T04:28:54.242Z,74.10
2019-03-21T04:31:24.957Z,73.70
2019-03-21T04:33:57.473Z,74.20
2019-03-21T04:36:28.112Z,74.80
2019-03-21T04:38:58.756Z,74.20
2019-03-21T04:41:33.698Z,74.70
2019-03-21T04:44:05.573Z,74.70
2019-03-21T04:46:40.925Z,75.10
2019-03-21T04:49:12.158Z,76.30
2019-03-21T04:51:46.202Z,76.10
2019-03-21T04:54:16.794Z,76.00
2019-03-21T04:56:50.290Z,75.50
2019-03-21T04:59:22.734Z,75.50
2019-03-21T05:01:54.865Z,75.20
2019-03-21T05:04:25.587Z,75.40
2019-03-21T05:07:00.290Z,74.90
2019-03-21T05:09:31.043Z,75.50
2019-03-21T05:12:01.699Z,75.60
2019-03-21T05:14:38.779Z,75.70
2019-03-21T05:17:13.802Z,75.50
2019-03-21T05:19:44.262Z,75.70
2019-03-21T05:22:14.910Z,75.70
2019-03-21T05:24:55.307Z,75.90
2019-03-21T05:27:24.916Z,75.60
2019-03-21T05:29:55.703Z,75.50
2019-03-21T05:32:30.505Z,75.00
2019-03-21T05:35:01.263Z,75.10
2019-03-21T05:37:33.900Z,74.60
2019-03-21T05:40:05.767Z,74.30
2019-03-21T05:42:37.646Z,74.10
2019-03-21T05:45:10.908Z,70.30
2019-03-21T05:47:41.653Z,64.90
2019-03-21T05:50:17.097Z,65.30
2019-03-21T05:52:47.806Z,59.50
2019-03-21T05:55:19.595Z,53.60
2019-03-21T05:57:54.147Z,48.90
2019-03-21T06:00:28.391Z,44.30
2019-03-21T06:03:05.247Z,40.50
2019-03-21T06:05:43.023Z,38.00
2019-03-21T06:08:26.085Z,38.00
2019-03-21T06:10:56.774Z,37.20
2019-03-21T06:13:27.440Z,34.40
2019-03-21T06:16:08.539Z,31.70
2019-03-21T06:18:58.781Z,30.40
2019-03-21T06:21:57.098Z,32.00
2019-03-21T06:24:36.119Z,33.40
2019-03-21T06:27:26.743Z,33.20
2019-03-21T06:29:59.378Z,32.30
2019-03-21T06:32:30.989Z,29.60
2019-03-21T06:35:02.469Z,27.10
2019-03-21T06:37:33.120Z,25.30
2019-03-21T06:40:04.390Z,24.40
2019-03-21T06:42:35.119Z,22.90
2019-03-21T06:45:07.302Z,21.60
2019-03-21T06:47:41.734Z,21.90
2019-03-21T06:50:15.518Z,21.70
2019-03-21T06:52:45.926Z,21.90
2019-03-21T06:55:17.396Z,20.30
2019-03-21T06:57:52.976Z,20.10
2019-03-21T07:00:27.764Z,19.60
2019-03-21T07:03:00.438Z,18.70
2019-03-21T07:05:30.832Z,21.40
2019-03-21T07:08:03.323Z,26.00
2019-03-21T07:10:34.370Z,27.20
2019-03-21T07:13:05.015Z,25.10
2019-03-21T07:15:37.346Z,22.70
2019-03-21T07:18:12.235Z,22.20
2019-03-21T07:20:42.872Z,19.70
2019-03-21T07:23:14.596Z,20.00
2019-03-21T07:25:46.724Z,24.60
2019-03-21T07:28:17.421Z,25.30
2019-03-21T07:30:48.091Z,25.30
2019-03-21T07:33:19.833Z,25.10
2019-03-21T07:35:50.568Z,26.60
2019-03-21T07:38:21.343Z,25.60
2019-03-21T07:40:53.191Z,26.10
2019-03-21T07:43:23.910Z,26.00
2019-03-21T07:45:55.780Z,25.80
2019-03-21T07:48:29.848Z,24.70
2019-03-21T07:51:00.519Z,24.40
2019-03-21T07:53:33.139Z,23.50
2019-03-21T07:56:05.251Z,24.60
2019-03-21T07:58:36.522Z,23.10
2019-03-21T08:01:07.313Z,25.00
2019-03-21T08:03:39.147Z,26.30
2019-03-21T08:06:11.392Z,24.60
2019-03-21T08:08:43.258Z,25.90
2019-03-21T08:11:13.915Z,26.00
2019-03-21T08:13:46.518Z,24.20
2019-03-21T08:16:16.907Z,23.40
2019-03-21T08:18:47.558Z,24.10
2019-03-21T08:21:18.289Z,22.30
2019-03-21T08:23:50.113Z,22.40
2019-03-21T08:26:22.030Z,22.30
2019-03-21T08:28:52.699Z,19.90
2019-03-21T08:31:25.464Z,19.20
2019-03-21T08:33:56.152Z,18.10
2019-03-21T08:36:26.713Z,18.20
2019-03-21T08:38:57.425Z,19.80
2019-03-21T08:41:29.383Z,19.90
2019-03-21T08:44:01.047Z,20.10
2019-03-21T08:46:31.817Z,22.30
2019-03-21T08:49:02.466Z,24.00
2019-03-21T08:51:33.121Z,24.40
2019-03-21T08:54:03.834Z,24.90
2019-03-21T08:56:34.630Z,22.70
2019-03-21T08:59:09.285Z,20.90
2019-03-21T09:01:40.975Z,23.20
2019-03-21T09:04:15.082Z,24.50
2019-03-21T09:06:47.385Z,23.40
2019-03-21T09:09:21.911Z,22.00
2019-03-21T09:11:56.893Z,24.10
2019-03-21T09:14:31.217Z,25.70
2019-03-21T09:17:01.592Z,23.90
2019-03-21T09:19:39.558Z,24.00
2019-03-21T09:22:10.321Z,23.20
2019-03-21T09:24:42.666Z,23.40
2019-03-21T09:27:14.335Z,24.50
2019-03-21T09:29:53.433Z,23.40
2019-03-21T09:32:17.443Z,23.70
2019-03-21T09:34:49.031Z,22.80
2019-03-21T09:37:19.730Z,22.00
2019-03-21T09:39:54.620Z,22.50
2019-03-21T09:42:27.175Z,22.40
2019-03-21T09:44:58.928Z,25.50
2019-03-21T09:47:29.607Z,24.30
2019-03-21T09:50:00.410Z,20.10
2019-03-21T09:52:32.891Z,22.60
2019-03-21T09:55:04.067Z,22.10
2019-03-21T09:57:34.844Z,23.20
2019-03-21T10:00:09.336Z,25.50
2019-03-21T10:02:48.801Z,26.50
2019-03-21T10:05:23.259Z,25.50
2019-03-21T10:07:55.540Z,25.70
2019-03-21T10:10:32.425Z,24.10
2019-03-21T10:13:03.549Z,23.40
2019-03-21T10:15:36.825Z,24.60
2019-03-21T10:18:06.731Z,23.60
2019-03-21T10:20:38.413Z,23.00
2019-03-21T10:23:12.091Z,23.90
2019-03-21T10:25:45.791Z,22.30
2019-03-21T10:28:18.543Z,22.40
2019-03-21T10:30:49.211Z,24.90
2019-03-21T10:33:21.496Z,24.80
2019-03-21T10:35:54.641Z,24.70
2019-03-21T10:38:25.705Z,24.80
2019-03-21T10:40:56.381Z,26.00
2019-03-21T10:43:29.461Z,23.90
2019-03-21T10:45:59.423Z,24.60
2019-03-21T10:48:30.156Z,22.60
2019-03-21T10:51:00.811Z,20.90
2019-03-21T10:53:31.489Z,21.30
2019-03-21T10:56:02.238Z,20.10
2019-03-21T10:58:35.276Z,20.50
2019-03-21T11:01:06.377Z,23.10
2019-03-21T11:03:36.987Z,22.70
2019-03-21T11:06:09.211Z,23.50
2019-03-21T11:08:39.885Z,25.00
2019-03-21T11:11:10.530Z,28.30
2019-03-21T11:13:41.207Z,29.90
2019-03-21T11:16:12.244Z,30.60
2019-03-21T11:18:44.566Z,29.80
2019-03-21T11:21:15.274Z,31.70
2019-03-21T11:23:45.902Z,32.40
2019-03-21T11:26:16.484Z,31.10
2019-03-21T11:28:47.150Z,32.80
2019-03-21T11:31:17.731Z,32.70
2019-03-21T11:33:48.380Z,32.50
2019-03-21T11:36:18.948Z,32.60
2019-03-21T11:38:49.870Z,32.30
2019-03-21T11:41:20.603Z,32.60
2019-03-21T11:43:51.302Z,33.40
2019-03-21T11:46:22.016Z,33.30
2019-03-21T11:48:52.764Z,36.10
2019-03-21T11:51:23.419Z,34.70
2019-03-21T11:53:54.198Z,34.70
2019-03-21T11:56:24.846Z,35.70
2019-03-21T11:58:56.033Z,37.20
2019-03-21T12:01:26.773Z,36.50
2019-03-21T12:03:57.476Z,36.20
2019-03-21T12:06:28.175Z,37.10
2019-03-21T12:08:58.829Z,36.30
2019-03-21T12:11:30.847Z,37.10
2019-03-21T12:14:02.713Z,37.30
2019-03-21T12:16:33.386Z,36.70
2019-03-21T12:19:04.251Z,36.90
2019-03-21T12:21:34.963Z,36.90
2019-03-21T12:24:07.165Z,36.90
2019-03-21T12:26:38.280Z,37.80
2019-03-21T12:29:09.000Z,37.30
2019-03-21T12:31:39.829Z,36.40
2019-03-21T12:34:10.477Z,36.80
2019-03-21T12:36:41.099Z,37.00
2019-03-21T12:39:11.830Z,37.40
2019-03-21T12:41:44.390Z,37.90
2019-03-21T12:44:16.101Z,37.90
2019-03-21T12:46:48.855Z,37.10
2019-03-21T12:49:19.525Z,36.20
2019-03-21T12:51:51.579Z,36.70
2019-03-21T12:54:22.243Z,35.90
2019-03-21T12:56:57.191Z,35.90
2019-03-21T12:59:29.757Z,36.00
2019-03-21T13:02:05.639Z,35.40
2019-03-21T13:04:41.823Z,34.10
2019-03-21T13:07:12.209Z,35.90
2019-03-21T13:09:43.901Z,35.00
2019-03-21T13:12:15.871Z,34.20
2019-03-21T13:14:46.541Z,34.70
2019-03-21T13:17:18.825Z,34.60
2019-03-21T13:19:49.539Z,34.90
2019-03-21T13:22:21.234Z,35.10
2019-03-21T13:24:51.974Z,35.50
2019-03-21T13:27:22.654Z,34.50
2019-03-21T13:29:56.578Z,34.80
2019-03-21T13:32:27.231Z,35.40
2019-03-21T13:34:59.927Z,34.40
2019-03-21T13:37:32.360Z,35.00
2019-03-21T13:40:04.394Z,34.50
2019-03-21T13:42:38.657Z,34.30
2019-03-21T13:45:09.622Z,34.60
2019-03-21T13:47:43.428Z,34.80
2019-03-21T13:50:16.545Z,34.70
2019-03-21T13:52:46.580Z,34.80
2019-03-21T13:55:18.522Z,34.00
2019-03-21T13:57:49.298Z,34.30
2019-03-21T14:00:21.429Z,34.50
2019-03-21T14:02:52.142Z,34.20
2019-03-21T14:05:22.780Z,34.50
2019-03-21T14:07:53.822Z,34.00
2019-03-21T14:10:24.407Z,34.50
2019-03-21T14:12:55.037Z,34.90
2019-03-21T14:15:25.678Z,35.30
2019-03-21T14:17:56.344Z,34.10
2019-03-21T14:20:27.194Z,34.80
2019-03-21T14:22:57.942Z,34.50
2019-03-21T14:25:28.683Z,34.30
2019-03-21T14:27:59.448Z,33.90
2019-03-21T14:30:31.860Z,34.60
2019-03-21T14:33:02.511Z,34.20
2019-03-21T14:35:33.159Z,34.10
2019-03-21T14:38:04.057Z,34.40
2019-03-21T14:40:34.917Z,34.20
2019-03-21T14:43:05.718Z,34.30
2019-03-21T14:45:36.519Z,33.50
2019-03-21T14:48:07.297Z,33.60
2019-03-21T14:50:37.970Z,34.30
2019-03-21T14:53:08.639Z,33.30
2019-03-21T14:55:47.506Z,34.00
2019-03-21T14:58:15.510Z,33.60
2019-03-21T15:00:46.184Z,33.70
2019-03-21T15:03:16.851Z,34.00
2019-03-21T15:05:49.287Z,33.90
2019-03-21T15:08:19.921Z,33.90
2019-03-21T15:10:51.813Z,33.30
2019-03-21T15:13:25.584Z,33.30
2019-03-21T15:15:55.893Z,32.70
2019-03-21T15:18:26.640Z,33.90
2019-03-21T15:21:00.534Z,33.30
2019-03-21T15:23:40.154Z,33.40
2019-03-21T15:26:06.623Z,32.80
2019-03-21T15:28:37.377Z,33.40
2019-03-21T15:31:10.021Z,34.30
2019-03-21T15:33:42.234Z,33.60
2019-03-21T15:36:12.876Z,33.70
2019-03-21T15:38:45.918Z,33.80
2019-03-21T15:41:17.376Z,33.80
2019-03-21T15:43:47.964Z,33.60
2019-03-21T15:46:18.656Z,34.00
2019-03-21T15:48:49.246Z,34.30
2019-03-21T15:51:19.871Z,34.20
2019-03-21T15:53:56.597Z,34.90
2019-03-21T15:56:26.528Z,34.30
2019-03-21T15:59:01.639Z,35.00
2019-03-21T16:01:37.421Z,34.10
2019-03-21T16:04:04.533Z,34.30
2019-03-21T16:06:35.064Z,34.00
2019-03-21T16:09:06.980Z,34.20
2019-03-21T16:11:37.629Z,34.30
2019-03-21T16:14:08.237Z,34.70
2019-03-21T16:16:38.860Z,34.80
2019-03-21T16:19:10.679Z,34.60
2019-03-21T16:21:41.283Z,34.20
2019-03-21T16:24:13.116Z,33.70
2019-03-21T16:26:43.741Z,34.60
2019-03-21T16:29:14.347Z,33.80
2019-03-21T16:31:44.997Z,33.70
2019-03-21T16:34:15.687Z,33.80
2019-03-21T16:36:46.354Z,33.60
2019-03-21T16:39:16.976Z,34.20
2019-03-21T16:41:47.537Z,33.90
2019-03-21T16:44:18.068Z,34.10
2019-03-21T16:46:48.616Z,34.80
2019-03-21T16:49:19.241Z,34.20
2019-03-21T16:51:50.121Z,34.30
2019-03-21T16:54:20.842Z,34.60
2019-03-21T16:56:51.419Z,34.90
2019-03-21T16:59:22.056Z,34.60
2019-03-21T17:01:53.817Z,34.30
2019-03-21T17:04:29.115Z,34.50
2019-03-21T17:06:59.725Z,35.10
2019-03-21T17:09:33.388Z,35.30
2019-03-21T17:12:05.395Z,35.40
2019-03-21T17:14:36.071Z,35.90
2019-03-21T17:17:06.778Z,35.90
2019-03-21T17:19:39.111Z,35.80
2019-03-21T17:22:10.723Z,36.10
2019-03-21T17:24:44.422Z,36.20
2019-03-21T17:27:18.033Z,36.30
2019-03-21T17:29:53.077Z,36.30
2019-03-21T17:32:23.446Z,36.50
2019-03-21T17:34:55.748Z,36.80
2019-03-21T17:37:26.357Z,36.50
2019-03-21T17:40:01.439Z,36.50
2019-03-21T17:42:34.430Z,37.00
2019-03-21T17:45:07.677Z,37.10
2019-03-21T17:47:38.753Z,37.40
2019-03-21T17:50:12.174Z,37.50
2019-03-21T17:52:44.158Z,37.60
2019-03-21T17:55:18.459Z,38.50
2019-03-21T17:57:49.161Z,42.00
2019-03-21T18:00:21.687Z,44.60
2019-03-21T18:02:52.403Z,46.20
2019-03-21T18:05:23.117Z,47.10
2019-03-21T18:07:54.907Z,48.60
2019-03-21T18:10:30.537Z,48.00
2019-03-21T18:13:01.670Z,50.10
2019-03-21T18:15:32.787Z,50.60
2019-03-21T18:18:03.772Z,50.90
2019-03-21T18:20:34.465Z,53.00
2019-03-21T18:23:05.256Z,53.30
2019-03-21T18:25:36.300Z,55.00
2019-03-21T18:28:08.750Z,55.10
2019-03-21T18:30:39.226Z,56.30
2019-03-21T18:33:09.829Z,56.60
2019-03-21T18:35:40.359Z,55.90
2019-03-21T18:38:12.295Z,56.00
2019-03-21T18:40:43.013Z,56.50
2019-03-21T18:43:16.053Z,56.80
2019-03-21T18:45:48.022Z,56.10
2019-03-21T18:48:18.615Z,56.30
2019-03-21T18:50:51.385Z,57.60
2019-03-21T18:53:28.478Z,57.50
2019-03-21T18:56:00.749Z,56.90
2019-03-21T18:58:31.445Z,58.40
2019-03-21T19:01:06.152Z,58.60
2019-03-21T19:03:37.143Z,59.40
2019-03-21T19:06:08.771Z,59.00
2019-03-21T19:08:39.398Z,59.30
2019-03-21T19:11:09.972Z,59.20
2019-03-21T19:13:40.562Z,58.70
2019-03-21T19:16:11.183Z,58.20
2019-03-21T19:18:41.947Z,57.90
2019-03-21T19:21:12.616Z,58.70
2019-03-21T19:23:43.273Z,58.90
2019-03-21T19:26:13.945Z,58.90
2019-03-21T19:28:44.580Z,59.20
2019-03-21T19:31:15.561Z,59.40
2019-03-21T19:33:46.231Z,59.40
2019-03-21T19:36:18.529Z,59.60
2019-03-21T19:38:49.252Z,59.50
2019-03-21T19:41:19.929Z,59.70
2019-03-21T19:43:50.597Z,59.60
2019-03-21T19:46:21.145Z,59.60
2019-03-21T19:48:51.679Z,60.60
2019-03-21T19:51:22.271Z,61.10
2019-03-21T19:53:53.177Z,62.30
2019-03-21T19:56:23.780Z,63.30
2019-03-21T19:58:56.604Z,63.40
2019-03-21T20:01:27.238Z,63.50
2019-03-21T20:03:57.849Z,63.60
2019-03-21T20:06:28.542Z,63.70
2019-03-21T20:08:59.086Z,62.70
2019-03-21T20:11:29.788Z,62.80
2019-03-21T20:14:03.830Z,62.90
2019-03-21T20:16:32.783Z,63.40
2019-03-21T20:19:03.410Z,64.40
2019-03-21T20:21:33.936Z,63.20
2019-03-21T20:24:04.482Z,62.70
2019-03-21T20:26:35.161Z,62.20
2019-03-21T20:29:05.724Z,61.80
2019-03-21T20:31:36.282Z,61.90
2019-03-21T20:34:06.940Z,61.80
2019-03-21T20:36:37.557Z,62.20
2019-03-21T20:39:09.078Z,62.50
2019-03-21T20:41:39.639Z,62.00
2019-03-21T20:44:15.412Z,63.10
2019-03-21T20:46:44.217Z,63.20
2019-03-21T20:49:14.769Z,63.50
2019-03-21T20:51:45.449Z,65.00
2019-03-21T20:54:16.201Z,64.60
2019-03-21T20:56:47.050Z,63.90
2019-03-21T20:59:17.719Z,63.70
2019-03-21T21:01:48.361Z,63.70
2019-03-21T21:04:18.968Z,64.30
2019-03-21T21:06:49.583Z,63.80
2019-03-21T21:09:20.208Z,64.10
2019-03-21T21:11:50.893Z,65.10
2019-03-21T21:14:21.456Z,63.60
2019-03-21T21:16:52.168Z,63.60
2019-03-21T21:19:22.896Z,64.00
2019-03-21T21:21:53.435Z,64.20
2019-03-21T21:24:24.112Z,64.80
2019-03-21T21:26:54.760Z,65.50
2019-03-21T21:29:25.326Z,64.50
2019-03-21T21:31:55.966Z,63.90
2019-03-21T21:34:26.633Z,64.20
2019-03-21T21:36:57.196Z,64.10
2019-03-21T21:39:27.830Z,64.00
2019-03-21T21:41:58.458Z,65.10
2019-03-21T21:44:28.995Z,65.80
2019-03-21T21:46:59.531Z,65.40
2019-03-21T21:49:36.063Z,66.80
2019-03-21T21:52:08.237Z,67.00
2019-03-21T21:54:38.860Z,66.70
2019-03-21T21:57:13.779Z,66.70
2019-03-21T21:59:44.131Z,65.80
2019-03-21T22:02:17.566Z,65.50
2019-03-21T22:04:49.987Z,65.80
2019-03-21T22:07:23.970Z,66.30
2019-03-21T22:09:57.370Z,67.20
2019-03-21T22:12:29.684Z,67.30
2019-03-21T22:15:03.264Z,67.90
2019-03-21T22:17:33.909Z,68.70
2019-03-21T22:20:12.031Z,68.50
2019-03-21T22:22:43.788Z,68.20
2019-03-21T22:25:17.194Z,68.20
2019-03-21T22:27:47.907Z,68.10
2019-03-21T22:30:20.940Z,67.70
2019-03-21T22:32:51.627Z,67.70
2019-03-21T22:35:22.141Z,68.10
2019-03-21T22:37:52.688Z,67.10
2019-03-21T22:40:23.518Z,67.50
2019-03-21T22:42:54.162Z,67.30
2019-03-21T22:45:24.806Z,67.50
2019-03-21T22:47:57.096Z,67.20
2019-03-21T22:50:28.993Z,66.60
2019-03-21T22:52:59.577Z,66.90
2019-03-21T22:55:30.215Z,68.10
2019-03-21T22:58:04.038Z,69.00
2019-03-21T23:00:48.132Z,68.40
2019-03-21T23:03:18.737Z,68.30
2019-03-21T23:05:50.697Z,68.10
2019-03-21T23:08:24.114Z,68.40
2019-03-21T23:10:54.860Z,69.90
2019-03-21T23:13:30.599Z,70.60
2019-03-21T23:16:01.142Z,71.40
2019-03-21T23:18:37.980Z,71.00
2019-03-21T23:21:10.030Z,69.60
2019-03-21T23:23:40.561Z,69.70
2019-03-21T23:26:12.162Z,69.80
2019-03-21T23:28:43.950Z,69.60
2019-03-21T23:31:16.224Z,69.90
2019-03-21T23:33:47.265Z,70.00
2019-03-21T23:36:19.571Z,69.80
2019-03-21T23:38:50.262Z,69.90
2019-03-21T23:41:20.820Z,68.90
2019-03-21T23:43:52.976Z,69.70
2019-03-21T23:46:27.093Z,71.10
2019-03-21T23:49:01.617Z,71.20
2019-03-21T23:51:32.222Z,71.00
2019-03-21T23:54:05.730Z,71.20
2019-03-21T23:56:37.152Z,71.20
2019-03-21T23:59:08.955Z,71.00
